createdAt,value
2023-05-17T05:50:02.090Z,11.40
2023-05-17T05:54:58.070Z,11.60
2023-05-17T05:59:51.558Z,11.90
2023-05-17T06:04:46.132Z,12.20
2023-05-17T06:09:41.024Z,12.40
2023-05-17T06:14:34.491Z,12.60
2023-05-17T06:19:27.969Z,12.70
2023-05-17T06:24:21.430Z,12.80
2023-05-17T06:45:13.045Z,13.00
2023-05-17T06:50:07.020Z,13.10
2023-05-17T06:55:00.349Z,13.20
2023-05-17T06:59:53.662Z,13.20
2023-05-17T07:04:48.466Z,13.30
2023-05-17T07:09:41.826Z,13.40
2023-05-17T07:14:35.560Z,13.50
2023-05-17T07:19:29.028Z,13.60
2023-05-17T07:24:23.829Z,13.70
2023-05-17T07:29:17.332Z,13.80
2023-05-17T07:34:10.642Z,13.80
2023-05-17T07:39:05.322Z,13.90
2023-05-17T07:44:00.025Z,13.90
2023-05-17T07:48:54.567Z,13.90
2023-05-17T07:53:49.826Z,13.90
2023-05-17T07:58:43.178Z,13.90
2023-05-17T08:03:37.966Z,13.80
2023-05-17T08:08:31.255Z,13.80
2023-05-17T08:13:24.785Z,13.80
2023-05-17T08:18:18.132Z,14.00
2023-05-17T08:23:12.953Z,14.20
2023-05-17T08:28:08.475Z,14.20
2023-05-17T08:33:01.907Z,14.20
2023-05-17T08:37:55.352Z,14.40
2023-05-17T08:42:50.206Z,14.30
2023-05-17T08:47:44.735Z,14.10
2023-05-17T08:52:39.251Z,14.10
2023-05-17T08:57:34.340Z,14.00
2023-05-17T09:02:31.098Z,13.90
2023-05-17T09:07:24.847Z,13.80
2023-05-17T09:12:18.177Z,13.80
2023-05-17T09:17:15.856Z,13.80
2023-05-17T09:22:10.594Z,13.90
2023-05-17T09:27:05.855Z,13.90
2023-05-17T09:32:12.849Z,13.90
2023-05-17T09:37:06.463Z,14.00
2023-05-17T09:42:01.326Z,13.90
2023-05-17T09:46:54.612Z,13.90
2023-05-17T09:51:49.975Z,14.00
2023-05-17T09:56:43.827Z,14.10
2023-05-17T10:01:41.603Z,14.20
2023-05-17T10:06:45.321Z,14.20
2023-05-17T10:11:44.478Z,14.20
2023-05-17T10:16:40.339Z,14.10
2023-05-17T10:21:34.387Z,14.10
2023-05-17T10:26:28.445Z,14.10
2023-05-17T10:31:22.419Z,14.10
2023-05-17T10:36:18.997Z,14.10
2023-05-17T10:41:15.254Z,14.10
2023-05-17T10:46:15.053Z,14.20
2023-05-17T10:51:09.890Z,14.10
2023-05-17T10:56:04.593Z,14.20
2023-05-17T11:00:57.937Z,14.30
2023-05-17T11:06:23.499Z,14.40
2023-05-17T11:11:20.858Z,14.40
2023-05-17T11:16:18.400Z,14.30
2023-05-17T11:21:15.425Z,14.20
2023-05-17T11:26:17.213Z,14.00
2023-05-17T11:31:12.853Z,13.80
2023-05-17T11:36:14.083Z,13.70
2023-05-17T11:46:24.275Z,13.40
2023-05-17T11:51:17.928Z,13.20
2023-05-17T11:56:11.692Z,13.10
2023-05-17T12:01:06.054Z,13.10
2023-05-17T12:06:09.968Z,13.00
2023-05-17T12:11:04.695Z,12.90
2023-05-17T12:15:58.987Z,12.80
2023-05-17T12:20:59.284Z,12.70
2023-05-17T12:26:04.048Z,12.70
2023-05-17T12:31:01.196Z,12.70
2023-05-17T12:35:54.978Z,12.70
2023-05-17T12:40:48.490Z,12.70
2023-05-17T12:45:44.406Z,12.70
2023-05-17T12:50:37.822Z,12.80
2023-05-17T12:55:38.118Z,12.70
2023-05-17T13:00:31.746Z,12.70
2023-05-17T13:05:26.657Z,12.60
2023-05-17T13:10:26.020Z,12.60
2023-05-17T13:15:19.370Z,12.70
2023-05-17T13:20:12.923Z,12.70
2023-05-17T13:25:08.300Z,12.60
2023-05-17T13:30:01.599Z,12.60
2023-05-17T13:34:55.068Z,12.60
2023-05-17T13:39:48.444Z,12.70
2023-05-17T13:44:43.237Z,12.80
2023-05-17T13:49:37.381Z,12.70
2023-05-17T13:54:30.830Z,12.70
2023-05-17T13:59:24.089Z,12.70
2023-05-17T14:04:20.012Z,12.70
2023-05-17T14:09:13.520Z,12.60
2023-05-17T14:14:06.836Z,12.50
2023-05-17T14:19:02.713Z,12.60
2023-05-17T14:23:59.105Z,12.50
2023-05-17T14:28:52.602Z,12.40
2023-05-17T14:33:46.073Z,12.20
2023-05-17T14:38:40.114Z,12.20
2023-05-17T14:43:34.832Z,12.10
2023-05-17T14:48:28.158Z,12.20
2023-05-17T14:53:21.751Z,12.10
2023-05-17T14:58:15.029Z,12.20
2023-05-17T15:03:10.484Z,12.10
2023-05-17T15:08:04.454Z,12.10
2023-05-17T15:12:57.787Z,12.20
2023-05-17T15:17:51.932Z,12.10
2023-05-17T15:22:47.183Z,12.20
2023-05-17T15:27:40.856Z,12.20
2023-05-17T15:32:35.272Z,12.20
2023-05-17T15:37:28.731Z,12.20
2023-05-17T15:42:23.488Z,12.30
2023-05-17T15:47:16.820Z,12.30
2023-05-17T15:52:10.196Z,12.20
2023-05-17T15:57:03.546Z,12.10
2023-05-17T16:01:58.217Z,12.10
2023-05-17T16:06:51.573Z,12.10
2023-05-17T16:11:44.945Z,12.10
2023-05-17T16:16:38.225Z,11.90
2023-05-17T16:21:32.936Z,11.90
2023-05-17T16:26:26.636Z,11.80
2023-05-17T16:31:20.133Z,11.80
2023-05-17T16:36:13.448Z,11.80
2023-05-17T16:41:08.095Z,11.70
2023-05-17T16:46:01.600Z,11.60
